createdAt,value
2019-03-28T00:02:02.332Z,79.12
2019-03-28T00:04:31.356Z,79.38
2019-03-28T00:07:00.366Z,79.30
2019-03-28T00:09:29.357Z,79.24
2019-03-28T00:11:58.374Z,79.13
2019-03-28T00:14:27.383Z,79.07
2019-03-28T00:16:56.390Z,79.04
2019-03-28T00:19:25.391Z,79.18
2019-03-28T00:21:55.469Z,79.31
2019-03-28T00:24:34.398Z,79.25
2019-03-28T00:27:03.423Z,79.25
2019-03-28T00:29:32.415Z,79.19
2019-03-28T00:32:01.426Z,79.16
2019-03-28T00:34:30.405Z,79.21
2019-03-28T00:36:59.415Z,79.17
2019-03-28T00:39:28.673Z,79.06
2019-03-28T00:41:58.022Z,79.04
2019-03-28T00:44:27.039Z,79.13
2019-03-28T00:46:56.108Z,79.29
2019-03-28T00:49:25.124Z,79.27
2019-03-28T00:51:54.224Z,79.23
2019-03-28T00:54:23.241Z,79.31
2019-03-28T00:56:52.321Z,79.23
2019-03-28T00:59:21.338Z,79.21
2019-03-28T01:01:50.368Z,79.18
2019-03-28T01:04:19.451Z,79.35
2019-03-28T01:06:48.455Z,79.23
2019-03-28T01:09:17.755Z,79.29
2019-03-28T01:11:46.747Z,79.27
2019-03-28T01:14:15.762Z,79.47
2019-03-28T01:16:44.845Z,79.50
2019-03-28T01:19:14.312Z,79.45
2019-03-28T01:21:43.315Z,79.37
2019-03-28T01:24:12.317Z,79.47
2019-03-28T01:26:41.322Z,79.63
2019-03-28T01:29:10.317Z,79.53
2019-03-28T01:31:39.605Z,79.53
2019-03-28T01:34:08.610Z,79.55
2019-03-28T01:36:38.240Z,79.50
2019-03-28T01:39:07.564Z,79.40
2019-03-28T01:41:36.653Z,79.36
2019-03-28T01:44:05.642Z,79.23
2019-03-28T01:46:34.646Z,79.23
2019-03-28T01:49:03.847Z,79.24
2019-03-28T01:51:32.814Z,79.34
2019-03-28T01:54:01.826Z,79.45
2019-03-28T01:56:30.822Z,79.39
2019-03-28T01:58:59.806Z,79.30
2019-03-28T02:01:28.816Z,79.35
2019-03-28T02:03:57.828Z,79.43
2019-03-28T02:06:26.846Z,79.33
2019-03-28T02:08:55.850Z,79.39
2019-03-28T02:11:24.840Z,79.28
2019-03-28T02:13:53.852Z,79.39
2019-03-28T02:16:22.873Z,79.32
2019-03-28T02:18:51.886Z,79.22
2019-03-28T02:21:20.960Z,79.28
2019-03-28T02:23:50.048Z,79.27
2019-03-28T02:26:19.136Z,79.27
2019-03-28T02:28:48.154Z,79.32
2019-03-28T02:31:17.168Z,79.45
2019-03-28T02:33:46.261Z,79.39
2019-03-28T02:36:15.241Z,79.49
2019-03-28T02:38:44.230Z,79.28
2019-03-28T02:41:13.297Z,79.27
2019-03-28T02:43:42.308Z,79.14
2019-03-28T02:46:11.390Z,79.19
2019-03-28T02:48:40.475Z,79.25
2019-03-28T02:51:09.510Z,79.24
2019-03-28T02:53:39.563Z,79.30
2019-03-28T02:56:08.658Z,79.50
2019-03-28T02:58:37.670Z,79.40
2019-03-28T03:01:06.668Z,79.14
2019-03-28T03:03:35.823Z,79.25
2019-03-28T03:06:04.842Z,79.27
2019-03-28T03:08:33.926Z,79.32
2019-03-28T03:11:02.917Z,79.36
2019-03-28T03:13:31.996Z,79.29
2019-03-28T03:16:00.991Z,79.42
2019-03-28T03:18:30.079Z,79.47
2019-03-28T03:20:59.072Z,79.41
2019-03-28T03:23:28.141Z,79.36
2019-03-28T03:25:57.146Z,79.30
2019-03-28T03:28:26.219Z,79.14
2019-03-28T03:30:55.201Z,79.19
2019-03-28T03:33:24.337Z,79.16
2019-03-28T03:35:53.346Z,79.36
2019-03-28T03:38:22.403Z,79.47
2019-03-28T03:40:51.415Z,79.47
2019-03-28T03:43:20.519Z,79.39
2019-03-28T03:45:49.508Z,79.31
2019-03-28T03:48:18.531Z,79.27
2019-03-28T03:50:48.676Z,79.20
2019-03-28T03:53:17.742Z,79.29
2019-03-28T03:55:46.771Z,79.44
2019-03-28T03:58:17.014Z,79.32
2019-03-28T04:00:46.582Z,79.35
2019-03-28T04:03:15.603Z,79.44
2019-03-28T04:05:44.633Z,79.47
2019-03-28T04:08:13.635Z,79.25
2019-03-28T04:10:42.656Z,79.47
2019-03-28T04:13:12.115Z,79.48
2019-03-28T04:15:41.116Z,79.50
2019-03-28T04:18:10.110Z,79.50
2019-03-28T04:20:39.154Z,79.25
2019-03-28T04:23:08.147Z,79.61
2019-03-28T04:25:37.362Z,79.53
2019-03-28T04:28:06.340Z,79.37
2019-03-28T04:30:35.345Z,79.44
2019-03-28T04:33:04.730Z,79.36
2019-03-28T04:35:33.755Z,79.20
2019-03-28T04:38:02.748Z,79.17
2019-03-28T04:40:31.846Z,79.34
2019-03-28T04:43:01.476Z,79.39
2019-03-28T04:45:30.566Z,79.29
2019-03-28T04:47:59.554Z,79.29
2019-03-28T04:50:28.569Z,79.46
2019-03-28T04:52:57.597Z,79.47
2019-03-28T04:55:26.580Z,79.46
2019-03-28T04:57:55.662Z,79.45
2019-03-28T05:00:24.668Z,79.36
2019-03-28T05:02:53.662Z,79.26
2019-03-28T05:05:22.673Z,79.32
2019-03-28T05:07:51.704Z,79.32
2019-03-28T05:10:20.945Z,79.19
2019-03-28T05:12:49.957Z,79.25
2019-03-28T05:15:20.332Z,79.30
2019-03-28T05:17:49.674Z,79.27
2019-03-28T05:20:18.678Z,79.19
2019-03-28T05:22:48.487Z,79.43
2019-03-28T05:25:17.571Z,79.53
2019-03-28T05:27:46.587Z,79.60
2019-03-28T05:30:17.569Z,79.51
2019-03-28T05:32:46.735Z,79.32
2019-03-28T05:35:15.762Z,79.41
2019-03-28T05:37:44.794Z,79.27
2019-03-28T05:40:14.149Z,79.25
2019-03-28T05:42:43.174Z,79.24
2019-03-28T05:45:12.192Z,79.21
2019-03-28T05:47:41.201Z,79.49
2019-03-28T05:50:10.221Z,79.39
2019-03-28T05:52:39.242Z,79.59
2019-03-28T05:55:08.273Z,79.63
2019-03-28T05:57:37.337Z,79.65
2019-03-28T06:00:06.624Z,79.51
2019-03-28T06:02:35.640Z,79.61
2019-03-28T06:05:04.864Z,79.53
2019-03-28T06:07:33.880Z,79.46
2019-03-28T06:10:02.982Z,79.53
2019-03-28T06:12:32.062Z,79.38
2019-03-28T06:15:01.076Z,79.62
2019-03-28T06:17:30.078Z,79.76
2019-03-28T06:19:59.089Z,79.52
2019-03-28T06:22:28.101Z,79.64
2019-03-28T06:24:57.098Z,79.57
2019-03-28T06:27:26.085Z,79.53
2019-03-28T06:29:55.085Z,79.65
2019-03-28T06:32:24.136Z,79.73
2019-03-28T06:34:53.095Z,79.57
2019-03-28T06:37:22.162Z,79.62
2019-03-28T06:39:51.186Z,79.76
2019-03-28T06:42:20.174Z,79.66
2019-03-28T06:44:49.174Z,79.67
2019-03-28T06:47:20.956Z,79.45
2019-03-28T06:49:48.924Z,79.46
2019-03-28T06:52:17.993Z,79.52
2019-03-28T06:54:47.087Z,79.73
2019-03-28T06:57:18.842Z,79.75
2019-03-28T06:59:46.904Z,79.77
2019-03-28T07:02:15.890Z,79.63
2019-03-28T07:04:44.982Z,79.55
2019-03-28T07:07:13.988Z,79.53
2019-03-28T07:09:43.004Z,79.79
2019-03-28T07:12:12.159Z,79.63
2019-03-28T07:14:41.164Z,79.56
2019-03-28T07:17:10.245Z,79.60
2019-03-28T07:19:39.249Z,79.64
2019-03-28T07:22:08.328Z,79.61
2019-03-28T07:24:37.333Z,79.46
2019-03-28T07:27:06.751Z,79.62
2019-03-28T07:29:35.838Z,79.50
2019-03-28T07:32:04.851Z,79.40
2019-03-28T07:34:33.857Z,79.51
2019-03-28T07:37:02.986Z,79.69
2019-03-28T07:39:31.996Z,79.42
2019-03-28T07:42:01.049Z,79.29
2019-03-28T07:44:30.445Z,79.15
2019-03-28T07:46:59.441Z,79.17
2019-03-28T07:49:28.450Z,79.06
2019-03-28T07:51:57.484Z,79.07
2019-03-28T07:54:26.506Z,79.14
2019-03-28T07:56:55.512Z,79.12
2019-03-28T07:59:24.505Z,79.03
2019-03-28T08:01:53.516Z,78.99
2019-03-28T08:04:22.498Z,78.90
2019-03-28T08:06:51.928Z,78.85
2019-03-28T08:09:21.327Z,78.85
2019-03-28T08:11:50.313Z,79.04
2019-03-28T08:14:19.317Z,78.89
2019-03-28T08:16:48.341Z,78.86
2019-03-28T08:19:17.674Z,78.87
2019-03-28T08:21:46.676Z,78.78
2019-03-28T08:24:15.675Z,78.64
2019-03-28T08:26:44.809Z,78.79
2019-03-28T08:29:13.815Z,78.97
2019-03-28T08:31:44.933Z,78.92
2019-03-28T08:34:13.938Z,78.82
2019-03-28T08:36:43.131Z,78.87
2019-03-28T08:39:12.550Z,78.75
2019-03-28T08:41:41.574Z,78.62
2019-03-28T08:44:10.782Z,78.72
2019-03-28T08:46:39.943Z,78.88
2019-03-28T08:49:09.275Z,79.34
2019-03-28T08:51:38.280Z,79.44
2019-03-28T08:54:07.555Z,79.39
2019-03-28T08:56:36.585Z,79.24
2019-03-28T08:59:05.962Z,79.28
2019-03-28T09:01:34.966Z,79.08
2019-03-28T09:04:04.195Z,79.02
2019-03-28T09:06:33.230Z,78.91
2019-03-28T09:09:02.227Z,78.71
2019-03-28T09:11:31.241Z,78.70
2019-03-28T09:14:00.259Z,78.60
2019-03-28T09:16:29.260Z,78.46
2019-03-28T09:18:58.255Z,78.38
2019-03-28T09:21:27.286Z,78.50
2019-03-28T09:23:56.282Z,78.34
2019-03-28T09:26:25.284Z,77.93
2019-03-28T09:28:54.371Z,77.60
2019-03-28T09:31:23.394Z,77.89
2019-03-28T09:33:52.399Z,77.94
2019-03-28T09:36:21.398Z,77.70
2019-03-28T09:38:50.419Z,77.53
2019-03-28T09:41:19.422Z,77.33
2019-03-28T09:43:55.016Z,77.37
2019-03-28T09:46:19.514Z,77.55
2019-03-28T09:48:48.589Z,77.53
2019-03-28T09:51:17.618Z,77.51
2019-03-28T09:53:46.635Z,77.45
2019-03-28T09:56:15.657Z,77.43
2019-03-28T09:58:44.678Z,77.39
2019-03-28T10:01:13.689Z,77.24
2019-03-28T10:03:42.685Z,77.26
2019-03-28T10:06:11.689Z,77.30
2019-03-28T10:08:40.701Z,77.17
2019-03-28T10:11:10.051Z,77.39
2019-03-28T10:13:39.277Z,77.24
2019-03-28T10:16:08.276Z,77.06
2019-03-28T10:18:37.300Z,76.98
2019-03-28T10:21:06.300Z,76.93
2019-03-28T10:23:35.328Z,76.64
2019-03-28T10:26:04.351Z,76.46
2019-03-28T10:28:33.334Z,76.19
2019-03-28T10:31:15.519Z,75.80
2019-03-28T10:33:33.164Z,75.72
2019-03-28T10:36:02.189Z,75.50
2019-03-28T10:38:31.185Z,75.31
2019-03-28T10:41:00.183Z,75.45
2019-03-28T10:43:29.179Z,75.56
2019-03-28T10:45:58.168Z,75.44
2019-03-28T10:48:27.168Z,75.16
2019-03-28T10:50:56.219Z,75.19
2019-03-28T10:53:25.224Z,75.03
2019-03-28T10:55:54.220Z,74.69
2019-03-28T10:58:23.249Z,74.64
2019-03-28T11:00:54.795Z,74.41
2019-03-28T11:03:22.975Z,74.40
2019-03-28T11:05:51.993Z,74.52
2019-03-28T11:08:20.999Z,74.57
2019-03-28T11:10:50.052Z,74.64
2019-03-28T11:13:19.049Z,74.52
2019-03-28T11:15:48.092Z,74.73
2019-03-28T11:18:17.396Z,74.87
2019-03-28T11:20:46.399Z,74.56
2019-03-28T11:23:15.402Z,74.55
2019-03-28T11:25:44.410Z,74.84
2019-03-28T11:28:13.405Z,74.89
2019-03-28T11:30:42.537Z,74.98
2019-03-28T11:33:11.535Z,74.87
2019-03-28T11:35:40.526Z,74.87
2019-03-28T11:38:09.853Z,74.93
2019-03-28T11:40:41.274Z,74.89
2019-03-28T11:43:09.839Z,74.88
2019-03-28T11:45:38.938Z,74.83
2019-03-28T11:48:07.939Z,74.99
2019-03-28T11:50:36.947Z,75.13
2019-03-28T11:53:05.944Z,74.99
2019-03-28T11:55:34.956Z,74.85
2019-03-28T11:58:04.080Z,75.06
2019-03-28T12:00:33.100Z,75.10
2019-03-28T12:03:02.159Z,75.28
2019-03-28T12:05:31.145Z,75.24
2019-03-28T12:08:00.234Z,75.10
2019-03-28T12:10:29.315Z,75.16
2019-03-28T12:12:58.553Z,75.31
2019-03-28T12:15:27.584Z,75.41
2019-03-28T12:17:56.578Z,75.34
2019-03-28T12:20:25.571Z,75.29
2019-03-28T12:22:56.071Z,75.21
2019-03-28T12:25:25.365Z,75.22
2019-03-28T12:27:54.426Z,75.23
2019-03-28T12:30:24.225Z,75.00
2019-03-28T12:32:53.244Z,74.85
2019-03-28T12:35:22.265Z,74.82
2019-03-28T12:37:51.290Z,75.11
2019-03-28T12:40:20.270Z,75.10
2019-03-28T12:42:49.274Z,75.30
2019-03-28T12:45:18.279Z,75.35
2019-03-28T12:47:47.286Z,75.26
2019-03-28T12:50:16.321Z,75.17
2019-03-28T12:52:45.341Z,75.23
2019-03-28T12:55:14.952Z,75.40
2019-03-28T12:57:44.041Z,75.58
2019-03-28T13:00:13.183Z,75.67
2019-03-28T13:02:42.197Z,75.70
2019-03-28T13:05:11.271Z,75.81
2019-03-28T13:07:40.281Z,75.82
2019-03-28T13:10:09.511Z,76.15
2019-03-28T13:12:38.537Z,76.21
2019-03-28T13:15:07.604Z,76.12
2019-03-28T13:17:36.647Z,75.94
2019-03-28T13:20:06.853Z,75.86
2019-03-28T13:22:36.144Z,75.69
2019-03-28T13:25:05.776Z,75.60
2019-03-28T13:27:35.829Z,75.54
2019-03-28T13:30:06.227Z,75.53
2019-03-28T13:32:41.640Z,75.47
2019-03-28T13:35:07.494Z,75.47
2019-03-28T13:37:36.509Z,75.35
2019-03-28T13:40:05.913Z,75.21
2019-03-28T13:42:34.947Z,75.28
2019-03-28T13:45:04.246Z,75.37
2019-03-28T13:47:33.530Z,75.40
2019-03-28T13:50:02.605Z,75.41
2019-03-28T13:52:31.630Z,75.42
2019-03-28T13:55:00.653Z,75.42
2019-03-28T13:57:30.006Z,75.44
2019-03-28T13:59:59.028Z,75.35
2019-03-28T14:02:28.073Z,75.37
2019-03-28T14:04:57.085Z,75.36
2019-03-28T14:07:26.096Z,75.28
2019-03-28T14:09:55.073Z,75.42
2019-03-28T14:12:24.361Z,75.50
2019-03-28T14:14:53.377Z,75.69
2019-03-28T14:17:22.382Z,75.69
2019-03-28T14:19:51.381Z,75.68
2019-03-28T14:22:20.505Z,75.68
2019-03-28T14:24:49.525Z,75.78
2019-03-28T14:27:18.595Z,75.73
2019-03-28T14:29:47.939Z,75.65
2019-03-28T14:32:16.953Z,75.62
2019-03-28T14:34:45.981Z,75.53
2019-03-28T14:37:17.142Z,75.51
2019-03-28T14:39:49.003Z,75.41
2019-03-28T14:42:19.521Z,75.47
2019-03-28T14:44:47.184Z,75.41
2019-03-28T14:47:16.189Z,75.48
2019-03-28T14:49:45.319Z,75.53
2019-03-28T14:52:14.273Z,75.62
2019-03-28T14:54:43.260Z,75.73
2019-03-28T14:57:12.718Z,75.79
2019-03-28T14:59:41.727Z,75.63
2019-03-28T15:02:10.720Z,75.57
2019-03-28T15:04:39.730Z,75.63
2019-03-28T15:07:08.738Z,75.56
2019-03-28T15:09:37.778Z,75.39
2019-03-28T15:12:07.056Z,75.19
2019-03-28T15:14:36.069Z,75.04
2019-03-28T15:17:05.073Z,74.97
2019-03-28T15:19:34.416Z,74.94
2019-03-28T15:22:03.527Z,75.09
2019-03-28T15:24:32.485Z,75.14
2019-03-28T15:27:01.593Z,75.21
2019-03-28T15:29:30.583Z,75.36
2019-03-28T15:31:59.600Z,75.51
2019-03-28T15:34:28.578Z,75.53
2019-03-28T15:36:57.668Z,75.52
2019-03-28T15:39:26.696Z,75.54
2019-03-28T15:41:56.485Z,75.60
2019-03-28T15:44:25.479Z,75.54
2019-03-28T15:46:54.494Z,75.46
2019-03-28T15:49:23.805Z,75.45
2019-03-28T15:51:52.817Z,75.54
2019-03-28T15:54:21.946Z,75.62
2019-03-28T15:56:50.946Z,75.53
2019-03-28T15:59:19.944Z,75.44
2019-03-28T16:01:49.270Z,75.33
2019-03-28T16:04:18.273Z,75.25
2019-03-28T16:06:47.269Z,75.34
2019-03-28T16:09:18.316Z,75.47
2019-03-28T16:11:47.065Z,75.42
2019-03-28T16:14:16.417Z,75.38
2019-03-28T16:16:45.434Z,75.27
2019-03-28T16:19:14.429Z,75.30
2019-03-28T16:21:43.431Z,75.34
2019-03-28T16:24:12.457Z,75.65
2019-03-28T16:26:41.474Z,75.61
2019-03-28T16:29:10.449Z,75.50
2019-03-28T16:31:39.504Z,75.44
2019-03-28T16:34:09.413Z,75.41
2019-03-28T16:36:38.446Z,75.42
2019-03-28T16:39:07.868Z,75.40
2019-03-28T16:41:36.861Z,75.07
2019-03-28T16:44:05.994Z,72.12
2019-03-28T16:46:35.061Z,72.02
2019-03-28T16:49:04.086Z,71.52
2019-03-28T16:51:33.176Z,70.83
2019-03-28T16:54:02.154Z,71.04
2019-03-28T16:56:31.175Z,72.81
2019-03-28T16:59:00.175Z,73.94
2019-03-28T17:01:29.509Z,74.71
2019-03-28T17:03:58.519Z,75.20
2019-03-28T17:06:27.534Z,75.29
2019-03-28T17:08:56.519Z,75.37
2019-03-28T17:11:25.923Z,75.65
2019-03-28T17:13:54.911Z,75.55
2019-03-28T17:16:23.916Z,75.43
2019-03-28T17:18:52.905Z,75.33
2019-03-28T17:21:23.390Z,75.47
2019-03-28T17:23:53.801Z,75.39
2019-03-28T17:26:22.883Z,75.50
2019-03-28T17:28:51.962Z,75.36
2019-03-28T17:31:21.034Z,75.15
2019-03-28T17:33:50.022Z,75.16
2019-03-28T17:36:19.115Z,75.11
2019-03-28T17:38:48.655Z,75.16
2019-03-28T17:41:17.744Z,75.09
2019-03-28T17:43:47.117Z,74.51
2019-03-28T17:46:16.425Z,74.32
2019-03-28T17:48:45.438Z,74.39
2019-03-28T17:51:14.499Z,74.53
2019-03-28T17:53:43.518Z,74.58
2019-03-28T17:56:12.488Z,74.26
2019-03-28T17:58:41.606Z,73.99
2019-03-28T18:01:10.606Z,73.79
2019-03-28T18:03:39.605Z,73.28
2019-03-28T18:06:08.853Z,74.15
2019-03-28T18:08:38.056Z,74.10
2019-03-28T18:11:07.187Z,74.15
2019-03-28T18:13:36.178Z,73.23
2019-03-28T18:16:05.219Z,73.98
2019-03-28T18:18:34.237Z,73.90
2019-03-28T18:21:03.374Z,73.69
2019-03-28T18:23:32.395Z,73.46
2019-03-28T18:26:01.389Z,73.64
2019-03-28T18:28:31.638Z,73.75
2019-03-28T18:31:00.788Z,73.69
2019-03-28T18:33:29.813Z,73.62
2019-03-28T18:35:59.038Z,73.72
2019-03-28T18:38:30.823Z,73.78
2019-03-28T18:40:59.057Z,73.63
2019-03-28T18:43:28.093Z,73.54
2019-03-28T18:45:57.089Z,73.52
2019-03-28T18:48:31.601Z,72.99
2019-03-28T18:50:56.905Z,73.53
2019-03-28T18:53:25.964Z,73.47
2019-03-28T18:55:55.765Z,73.36
2019-03-28T18:58:25.033Z,73.29
2019-03-28T19:00:54.017Z,72.53
2019-03-28T19:03:23.298Z,73.12
2019-03-28T19:05:52.312Z,73.02
2019-03-28T19:08:21.333Z,73.09
2019-03-28T19:10:51.008Z,72.79
2019-03-28T19:13:20.076Z,72.96
2019-03-28T19:15:49.930Z,73.12
2019-03-28T19:18:19.186Z,72.76
2019-03-28T19:20:48.293Z,72.73
2019-03-28T19:23:17.280Z,72.75
2019-03-28T19:25:47.073Z,72.58
2019-03-28T19:28:27.945Z,72.79
2019-03-28T19:30:47.128Z,72.32
2019-03-28T19:33:16.221Z,72.53
2019-03-28T19:35:45.223Z,72.47
2019-03-28T19:38:14.327Z,72.37
2019-03-28T19:40:43.323Z,72.36
2019-03-28T19:43:20.274Z,72.03
2019-03-28T19:45:43.182Z,72.62
2019-03-28T19:48:12.300Z,72.71
2019-03-28T19:50:41.944Z,72.55
2019-03-28T19:53:11.908Z,72.65
2019-03-28T19:55:41.199Z,72.48
2019-03-28T19:58:13.353Z,72.36
2019-03-28T20:00:40.935Z,72.21
2019-03-28T20:03:09.957Z,72.16
2019-03-28T20:05:47.468Z,71.97
2019-03-28T20:08:15.860Z,72.41
2019-03-28T20:10:40.590Z,72.51
2019-03-28T20:13:09.632Z,72.44
2019-03-28T20:15:38.607Z,72.55
2019-03-28T20:18:07.626Z,72.29
2019-03-28T20:20:36.613Z,72.36
2019-03-28T20:23:05.611Z,72.54
2019-03-28T20:25:34.637Z,72.35
2019-03-28T20:28:03.653Z,72.39
2019-03-28T20:30:32.667Z,72.23
2019-03-28T20:33:01.694Z,72.38
2019-03-28T20:35:30.734Z,72.32
2019-03-28T20:37:59.729Z,72.20
2019-03-28T20:40:28.754Z,72.48
2019-03-28T20:42:57.750Z,72.43
2019-03-28T20:45:26.780Z,72.53
2019-03-28T20:47:55.785Z,72.25
2019-03-28T20:50:24.779Z,66.39
2019-03-28T20:52:54.125Z,63.67
2019-03-28T20:55:23.110Z,62.32
2019-03-28T20:57:52.126Z,65.20
2019-03-28T21:00:34.392Z,68.29
2019-03-28T21:03:03.408Z,70.47
2019-03-28T21:05:32.422Z,71.90
2019-03-28T21:08:01.636Z,72.11
2019-03-28T21:10:33.459Z,73.09
2019-03-28T21:13:01.597Z,72.95
2019-03-28T21:15:30.771Z,72.78
2019-03-28T21:18:00.905Z,72.39
2019-03-28T21:20:30.193Z,72.75
2019-03-28T21:22:59.393Z,72.67
2019-03-28T21:25:29.808Z,72.54
2019-03-28T21:27:59.293Z,72.49
2019-03-28T21:30:28.377Z,72.69
2019-03-28T21:32:58.167Z,72.75
2019-03-28T21:35:27.182Z,72.74
2019-03-28T21:37:56.165Z,72.47
2019-03-28T21:40:25.169Z,72.46
2019-03-28T21:42:54.262Z,72.12
2019-03-28T21:45:23.262Z,72.49
2019-03-28T21:47:52.561Z,72.31
2019-03-28T21:50:21.666Z,72.23
2019-03-28T21:52:50.763Z,72.36
2019-03-28T21:55:19.806Z,72.41
2019-03-28T21:57:48.806Z,72.25
2019-03-28T22:00:17.812Z,72.33
2019-03-28T22:02:46.823Z,72.35
2019-03-28T22:05:15.900Z,72.42
2019-03-28T22:07:44.943Z,72.37
2019-03-28T22:10:13.897Z,72.31
2019-03-28T22:12:42.898Z,72.31
2019-03-28T22:15:12.221Z,72.27
2019-03-28T22:17:42.080Z,72.42
2019-03-28T22:20:11.249Z,72.27
2019-03-28T22:22:43.406Z,72.13
2019-03-28T22:25:11.933Z,72.08
2019-03-28T22:27:40.937Z,72.26
2019-03-28T22:30:10.754Z,72.19
2019-03-28T22:32:40.103Z,72.14
2019-03-28T22:35:09.200Z,72.02
2019-03-28T22:37:38.309Z,71.83
2019-03-28T22:40:10.323Z,72.10
2019-03-28T22:42:38.836Z,71.95
2019-03-28T22:45:08.699Z,71.97
2019-03-28T22:47:37.696Z,72.00
2019-03-28T22:50:07.055Z,71.94
2019-03-28T22:52:36.049Z,71.86
2019-03-28T22:55:05.703Z,71.90
2019-03-28T22:57:34.778Z,72.04
2019-03-28T23:00:04.881Z,72.18
2019-03-28T23:02:33.852Z,72.23
2019-03-28T23:05:02.849Z,72.45
2019-03-28T23:07:31.848Z,72.36
2019-03-28T23:10:00.911Z,72.31
2019-03-28T23:12:29.923Z,72.19
2019-03-28T23:14:59.377Z,72.32
2019-03-28T23:17:28.400Z,72.40
2019-03-28T23:19:57.916Z,72.30
2019-03-28T23:22:26.885Z,72.05
2019-03-28T23:24:56.038Z,71.83
2019-03-28T23:27:25.415Z,71.82
2019-03-28T23:29:54.510Z,72.00
2019-03-28T23:32:23.584Z,72.12
2019-03-28T23:34:52.836Z,72.40
2019-03-28T23:37:24.839Z,72.35
2019-03-28T23:39:52.729Z,72.23
2019-03-28T23:42:21.831Z,72.04
2019-03-28T23:44:50.811Z,72.28
2019-03-28T23:47:19.885Z,72.49
2019-03-28T23:49:48.881Z,72.53
2019-03-28T23:52:17.963Z,72.29
2019-03-28T23:54:46.994Z,72.11
2019-03-28T23:57:15.984Z,72.08
2019-03-28T23:59:44.989Z,72.05
